sensor_id;sensor_type;location;lat;lon;timestamp;pressure;altitude;pressure_sealevel;temperature;humidity
42411;BME280;28056;51.112;0.984;2023-07-29T00:00:43;99793.14;;;18.12;89.73
42411;BME280;28056;51.112;0.984;2023-07-29T00:04:47;99786.28;;;17.45;89.03
42411;BME280;28056;51.112;0.984;2023-07-29T00:07:15;99781.32;;;16.79;95.00
42411;BME280;28056;51.112;0.984;2023-07-29T00:09:42;99781.10;;;18.20;89.72
42411;BME280;28056;51.112;0.984;2023-07-29T00:12:10;99773.62;;;18.16;88.31
42411;BME280;28056;51.112;0.984;2023-07-29T00:14:37;99772.47;;;18.26;87.30
42411;BME280;28056;51.112;0.984;2023-07-29T00:17:05;99766.85;;;18.44;87.28
42411;BME280;28056;51.112;0.984;2023-07-29T00:19:33;99758.96;;;17.86;89.64
42411;BME280;28056;51.112;0.984;2023-07-29T00:22:00;99757.57;;;17.13;94.60
42411;BME280;28056;51.112;0.984;2023-07-29T00:24:28;99759.61;;;17.55;92.05
42411;BME280;28056;51.112;0.984;2023-07-29T00:26:55;99759.67;;;17.46;94.47
42411;BME280;28056;51.112;0.984;2023-07-29T00:29:23;99763.32;;;17.46;94.34
42411;BME280;28056;51.112;0.984;2023-07-29T00:31:50;99760.68;;;17.85;92.57
42411;BME280;28056;51.112;0.984;2023-07-29T00:34:18;99758.27;;;17.67;94.83
42411;BME280;28056;51.112;0.984;2023-07-29T00:36:46;99751.73;;;17.50;94.87
42411;BME280;28056;51.112;0.984;2023-07-29T00:39:13;99755.13;;;17.17;98.30
42411;BME280;28056;51.112;0.984;2023-07-29T00:41:41;99754.70;;;17.52;96.39
42411;BME280;28056;51.112;0.984;2023-07-29T00:44:08;99755.98;;;17.28;97.93
42411;BME280;28056;51.112;0.984;2023-07-29T00:46:37;99754.21;;;17.40;98.10
42411;BME280;28056;51.112;0.984;2023-07-29T00:49:05;99751.36;;;18.23;92.22
42411;BME280;28056;51.112;0.984;2023-07-29T00:51:33;99755.92;;;16.99;98.39
42411;BME280;28056;51.112;0.984;2023-07-29T00:54:00;99751.78;;;17.64;95.59
42411;BME280;28056;51.112;0.984;2023-07-29T00:56:28;99749.31;;;16.82;100.00
42411;BME280;28056;51.112;0.984;2023-07-29T00:58:56;99752.26;;;17.38;100.00
42411;BME280;28056;51.112;0.984;2023-07-29T01:01:23;99755.69;;;17.51;100.00
42411;BME280;28056;51.112;0.984;2023-07-29T01:03:51;99761.93;;;17.82;96.77
42411;BME280;28056;51.112;0.984;2023-07-29T01:06:25;99756.51;;;17.64;97.13
42411;BME280;28056;51.112;0.984;2023-07-29T01:09:01;99757.42;;;17.27;100.00
42411;BME280;28056;51.112;0.984;2023-07-29T01:11:41;99755.90;;;16.86;100.00
42411;BME280;28056;51.112;0.984;2023-07-29T01:14:20;99760.89;;;17.57;99.30
42411;BME280;28056;51.112;0.984;2023-07-29T01:16:53;99758.47;;;17.22;100.00
42411;BME280;28056;51.112;0.984;2023-07-29T01:19:42;99753.78;;;17.32;98.72
42411;BME280;28056;51.112;0.984;2023-07-29T01:22:11;99756.19;;;17.23;99.50
42411;BME280;28056;51.112;0.984;2023-07-29T01:24:39;99746.56;;;16.78;100.00
42411;BME280;28056;51.112;0.984;2023-07-29T01:27:06;99747.07;;;17.22;100.00
42411;BME280;28056;51.112;0.984;2023-07-29T01:29:34;99749.52;;;17.46;100.00
42411;BME280;28056;51.112;0.984;2023-07-29T01:32:07;99746.16;;;17.58;98.90
42411;BME280;28056;51.112;0.984;2023-07-29T01:34:44;99744.82;;;17.60;98.85
42411;BME280;28056;51.112;0.984;2023-07-29T01:37:16;99751.72;;;17.67;98.61
42411;BME280;28056;51.112;0.984;2023-07-29T01:39:45;99753.91;;;17.61;100.00
42411;BME280;28056;51.112;0.984;2023-07-29T01:42:13;99738.49;;;18.02;96.84
42411;BME280;28056;51.112;0.984;2023-07-29T01:44:41;99742.72;;;17.26;99.15
42411;BME280;28056;51.112;0.984;2023-07-29T01:47:08;99737.45;;;17.44;99.58
42411;BME280;28056;51.112;0.984;2023-07-29T01:49:36;99728.25;;;17.88;95.45
42411;BME280;28056;51.112;0.984;2023-07-29T01:52:04;99732.37;;;17.68;94.82
42411;BME280;28056;51.112;0.984;2023-07-29T01:54:31;99734.51;;;18.16;92.33
42411;BME280;28056;51.112;0.984;2023-07-29T01:56:58;99737.61;;;17.42;94.10
42411;BME280;28056;51.112;0.984;2023-07-29T01:59:26;99736.91;;;17.19;98.39
42411;BME280;28056;51.112;0.984;2023-07-29T02:01:54;99736.23;;;17.04;97.44
42411;BME280;28056;51.112;0.984;2023-07-29T02:04:21;99730.73;;;17.03;98.39
42411;BME280;28056;51.112;0.984;2023-07-29T02:06:49;99729.39;;;17.93;94.15
42411;BME280;28056;51.112;0.984;2023-07-29T02:09:16;99730.91;;;17.80;94.17
42411;BME280;28056;51.112;0.984;2023-07-29T02:11:44;99733.19;;;17.87;92.57
42411;BME280;28056;51.112;0.984;2023-07-29T02:14:11;99726.17;;;17.81;95.12
42411;BME280;28056;51.112;0.984;2023-07-29T02:16:39;99727.58;;;17.93;94.56
42411;BME280;28056;51.112;0.984;2023-07-29T02:19:06;99727.82;;;17.80;92.73
42411;BME280;28056;51.112;0.984;2023-07-29T02:21:34;99732.66;;;17.79;92.17
42411;BME280;28056;51.112;0.984;2023-07-29T02:24:02;99735.31;;;17.88;93.98
42411;BME280;28056;51.112;0.984;2023-07-29T02:26:29;99741.94;;;17.96;91.43
42411;BME280;28056;51.112;0.984;2023-07-29T02:28:57;99743.49;;;17.99;92.66
42411;BME280;28056;51.112;0.984;2023-07-29T02:31:25;99745.72;;;17.54;94.28
42411;BME280;28056;51.112;0.984;2023-07-29T02:33:52;99741.93;;;17.52;94.94
42411;BME280;28056;51.112;0.984;2023-07-29T02:36:20;99739.34;;;16.84;99.77
42411;BME280;28056;51.112;0.984;2023-07-29T02:38:47;99743.40;;;16.36;100.00
42411;BME280;28056;51.112;0.984;2023-07-29T02:41:15;99748.90;;;16.87;100.00
42411;BME280;28056;51.112;0.984;2023-07-29T02:43:43;99748.48;;;16.71;100.00
42411;BME280;28056;51.112;0.984;2023-07-29T02:46:14;99746.60;;;17.46;98.40
42411;BME280;28056;51.112;0.984;2023-07-29T02:48:42;99741.94;;;17.77;96.95
42411;BME280;28056;51.112;0.984;2023-07-29T02:51:09;99743.91;;;17.72;97.36
42411;BME280;28056;51.112;0.984;2023-07-29T02:53:37;99742.94;;;17.37;100.00
42411;BME280;28056;51.112;0.984;2023-07-29T02:56:05;99743.77;;;16.29;100.00
42411;BME280;28056;51.112;0.984;2023-07-29T02:58:32;99738.69;;;17.01;100.00
42411;BME280;28056;51.112;0.984;2023-07-29T03:01:01;99739.42;;;17.34;99.07
42411;BME280;28056;51.112;0.984;2023-07-29T03:03:28;99737.67;;;17.52;95.75
42411;BME280;28056;51.112;0.984;2023-07-29T03:05:58;99745.89;;;17.32;96.41
42411;BME280;28056;51.112;0.984;2023-07-29T03:08:26;99741.96;;;17.80;96.61
42411;BME280;28056;51.112;0.984;2023-07-29T03:10:54;99735.75;;;17.53;94.07
42411;BME280;28056;51.112;0.984;2023-07-29T03:13:21;99735.85;;;18.08;91.48
42411;BME280;28056;51.112;0.984;2023-07-29T03:15:49;99740.27;;;18.46;88.92
42411;BME280;28056;51.112;0.984;2023-07-29T03:18:16;99735.25;;;17.55;92.22
42411;BME280;28056;51.112;0.984;2023-07-29T03:20:44;99732.10;;;17.47;94.68
42411;BME280;28056;51.112;0.984;2023-07-29T03:23:12;99730.26;;;18.01;91.12
42411;BME280;28056;51.112;0.984;2023-07-29T03:25:39;99726.38;;;17.80;92.14
42411;BME280;28056;51.112;0.984;2023-07-29T03:28:07;99728.08;;;17.57;93.94
42411;BME280;28056;51.112;0.984;2023-07-29T03:30:34;99722.52;;;17.50;93.87
42411;BME280;28056;51.112;0.984;2023-07-29T03:33:02;99723.27;;;17.06;95.64
42411;BME280;28056;51.112;0.984;2023-07-29T03:35:29;99716.76;;;18.02;93.05
42411;BME280;28056;51.112;0.984;2023-07-29T03:37:57;99722.86;;;18.41;90.03
42411;BME280;28056;51.112;0.984;2023-07-29T03:40:24;99724.81;;;17.66;92.26
42411;BME280;28056;51.112;0.984;2023-07-29T03:42:52;99727.61;;;18.29;89.18
42411;BME280;28056;51.112;0.984;2023-07-29T03:45:20;99725.47;;;18.09;89.62
42411;BME280;28056;51.112;0.984;2023-07-29T03:47:47;99729.21;;;18.39;88.06
42411;BME280;28056;51.112;0.984;2023-07-29T03:50:15;99729.56;;;18.31;87.97
42411;BME280;28056;51.112;0.984;2023-07-29T03:52:42;99732.82;;;18.39;87.26
42411;BME280;28056;51.112;0.984;2023-07-29T03:55:10;99727.47;;;17.91;87.28
42411;BME280;28056;51.112;0.984;2023-07-29T03:57:37;99725.82;;;17.73;89.70
42411;BME280;28056;51.112;0.984;2023-07-29T04:00:06;99729.59;;;17.95;88.87
42411;BME280;28056;51.112;0.984;2023-07-29T04:02:33;99725.62;;;17.66;89.40
42411;BME280;28056;51.112;0.984;2023-07-29T04:05:01;99723.65;;;18.13;88.11
42411;BME280;28056;51.112;0.984;2023-07-29T04:07:29;99724.90;;;17.59;90.47
42411;BME280;28056;51.112;0.984;2023-07-29T04:09:56;99718.31;;;16.53;98.05
42411;BME280;28056;51.112;0.984;2023-07-29T04:12:24;99725.54;;;17.11;97.06
42411;BME280;28056;51.112;0.984;2023-07-29T04:14:51;99726.34;;;17.83;94.07
42411;BME280;28056;51.112;0.984;2023-07-29T04:17:19;99728.73;;;17.66;94.79
42411;BME280;28056;51.112;0.984;2023-07-29T04:19:47;99727.33;;;17.36;94.21
42411;BME280;28056;51.112;0.984;2023-07-29T04:22:15;99729.98;;;17.81;91.54
42411;BME280;28056;51.112;0.984;2023-07-29T04:24:43;99731.76;;;17.65;93.08
42411;BME280;28056;51.112;0.984;2023-07-29T04:27:10;99733.52;;;17.91;92.04
42411;BME280;28056;51.112;0.984;2023-07-29T04:29:38;99731.74;;;18.40;88.19
42411;BME280;28056;51.112;0.984;2023-07-29T04:32:06;99731.76;;;17.62;91.76
42411;BME280;28056;51.112;0.984;2023-07-29T04:34:33;99727.45;;;18.05;90.55
42411;BME280;28056;51.112;0.984;2023-07-29T04:37:00;99734.16;;;18.02;90.13
42411;BME280;28056;51.112;0.984;2023-07-29T04:39:28;99733.65;;;17.91;92.70
42411;BME280;28056;51.112;0.984;2023-07-29T04:41:55;99734.60;;;17.39;93.80
42411;BME280;28056;51.112;0.984;2023-07-29T04:44:23;99732.11;;;17.89;92.75
42411;BME280;28056;51.112;0.984;2023-07-29T04:46:50;99735.93;;;18.14;91.53
42411;BME280;28056;51.112;0.984;2023-07-29T04:49:17;99737.73;;;18.67;88.43
42411;BME280;28056;51.112;0.984;2023-07-29T04:51:45;99735.59;;;18.47;87.48
42411;BME280;28056;51.112;0.984;2023-07-29T04:54:12;99733.24;;;18.72;86.63
42411;BME280;28056;51.112;0.984;2023-07-29T04:56:40;99738.82;;;18.14;89.65
42411;BME280;28056;51.112;0.984;2023-07-29T04:59:07;99739.29;;;18.97;85.13
42411;BME280;28056;51.112;0.984;2023-07-29T05:01:35;99735.47;;;18.43;87.47
42411;BME280;28056;51.112;0.984;2023-07-29T05:04:03;99723.99;;;19.31;83.27
42411;BME280;28056;51.112;0.984;2023-07-29T05:06:30;99726.12;;;19.17;83.94
42411;BME280;28056;51.112;0.984;2023-07-29T05:08:58;99720.34;;;19.04;84.17
42411;BME280;28056;51.112;0.984;2023-07-29T05:11:25;99715.19;;;18.58;85.65
42411;BME280;28056;51.112;0.984;2023-07-29T05:13:53;99712.50;;;19.01;85.61
42411;BME280;28056;51.112;0.984;2023-07-29T05:16:21;99727.09;;;18.81;87.08
42411;BME280;28056;51.112;0.984;2023-07-29T05:18:48;99728.05;;;18.81;88.57
42411;BME280;28056;51.112;0.984;2023-07-29T05:21:16;99723.84;;;18.32;90.67
42411;BME280;28056;51.112;0.984;2023-07-29T05:23:43;99727.32;;;18.36;92.24
42411;BME280;28056;51.112;0.984;2023-07-29T05:26:11;99727.10;;;16.94;100.00
42411;BME280;28056;51.112;0.984;2023-07-29T05:28:38;99734.44;;;18.27;96.03
42411;BME280;28056;51.112;0.984;2023-07-29T05:31:06;99736.73;;;18.31;94.57
42411;BME280;28056;51.112;0.984;2023-07-29T05:33:34;99739.77;;;17.73;97.94
42411;BME280;28056;51.112;0.984;2023-07-29T05:36:01;99729.95;;;17.99;98.72
42411;BME280;28056;51.112;0.984;2023-07-29T05:38:28;99736.30;;;17.82;100.00
42411;BME280;28056;51.112;0.984;2023-07-29T05:40:56;99736.69;;;18.42;96.78
42411;BME280;28056;51.112;0.984;2023-07-29T05:43:24;99738.78;;;17.18;100.00
42411;BME280;28056;51.112;0.984;2023-07-29T05:45:51;99741.78;;;18.16;96.67
42411;BME280;28056;51.112;0.984;2023-07-29T05:48:19;99738.33;;;17.52;100.00
42411;BME280;28056;51.112;0.984;2023-07-29T05:50:46;99733.44;;;17.01;100.00
42411;BME280;28056;51.112;0.984;2023-07-29T05:53:14;99736.92;;;17.53;100.00
42411;BME280;28056;51.112;0.984;2023-07-29T05:55:42;99732.03;;;18.17;99.97
42411;BME280;28056;51.112;0.984;2023-07-29T05:58:09;99734.29;;;18.15;99.02
42411;BME280;28056;51.112;0.984;2023-07-29T06:00:37;99731.65;;;18.43;96.64
42411;BME280;28056;51.112;0.984;2023-07-29T06:03:04;99725.50;;;18.84;94.57
42411;BME280;28056;51.112;0.984;2023-07-29T06:05:32;99718.13;;;18.91;92.34
42411;BME280;28056;51.112;0.984;2023-07-29T06:08:00;99726.44;;;18.50;93.74
42411;BME280;28056;51.112;0.984;2023-07-29T06:10:27;99727.56;;;17.69;97.02
42411;BME280;28056;51.112;0.984;2023-07-29T06:12:55;99730.53;;;18.35;97.53
42411;BME280;28056;51.112;0.984;2023-07-29T06:15:22;99738.94;;;18.57;96.72
42411;BME280;28056;51.112;0.984;2023-07-29T06:17:50;99741.83;;;18.82;96.15
42411;BME280;28056;51.112;0.984;2023-07-29T06:20:18;99741.72;;;18.24;99.01
42411;BME280;28056;51.112;0.984;2023-07-29T06:22:45;99743.22;;;19.01;94.97
42411;BME280;28056;51.112;0.984;2023-07-29T06:25:13;99741.04;;;19.20;93.06
42411;BME280;28056;51.112;0.984;2023-07-29T06:27:40;99742.13;;;18.60;94.61
42411;BME280;28056;51.112;0.984;2023-07-29T06:30:08;99744.43;;;18.48;96.34
42411;BME280;28056;51.112;0.984;2023-07-29T06:32:35;99743.47;;;18.56;96.16
42411;BME280;28056;51.112;0.984;2023-07-29T06:35:03;99739.32;;;18.08;99.18
42411;BME280;28056;51.112;0.984;2023-07-29T06:37:31;99747.08;;;18.85;97.19
42411;BME280;28056;51.112;0.984;2023-07-29T06:39:58;99750.84;;;17.80;100.00
42411;BME280;28056;51.112;0.984;2023-07-29T06:42:26;99751.60;;;18.32;100.00
42411;BME280;28056;51.112;0.984;2023-07-29T06:44:53;99752.42;;;18.46;100.00
42411;BME280;28056;51.112;0.984;2023-07-29T06:47:21;99745.45;;;17.87;100.00
42411;BME280;28056;51.112;0.984;2023-07-29T06:49:48;99747.50;;;18.26;100.00
42411;BME280;28056;51.112;0.984;2023-07-29T06:52:16;99749.26;;;18.39;100.00
42411;BME280;28056;51.112;0.984;2023-07-29T06:54:44;99748.09;;;17.67;100.00
42411;BME280;28056;51.112;0.984;2023-07-29T06:57:11;99750.59;;;18.63;97.05
42411;BME280;28056;51.112;0.984;2023-07-29T06:59:39;99747.20;;;18.75;97.05
42411;BME280;28056;51.112;0.984;2023-07-29T07:02:07;99744.21;;;18.42;98.40
42411;BME280;28056;51.112;0.984;2023-07-29T07:04:34;99747.80;;;18.70;95.52
42411;BME280;28056;51.112;0.984;2023-07-29T07:07:01;99756.24;;;18.12;98.70
42411;BME280;28056;51.112;0.984;2023-07-29T07:09:29;99761.07;;;18.94;95.58
42411;BME280;28056;51.112;0.984;2023-07-29T07:11:56;99761.82;;;17.90;98.71
42411;BME280;28056;51.112;0.984;2023-07-29T07:14:24;99758.83;;;17.79;100.00
42411;BME280;28056;51.112;0.984;2023-07-29T07:16:52;99760.25;;;18.06;100.00
42411;BME280;28056;51.112;0.984;2023-07-29T07:19:19;99759.26;;;18.20;100.00
42411;BME280;28056;51.112;0.984;2023-07-29T07:21:47;99763.84;;;18.38;100.00
42411;BME280;28056;51.112;0.984;2023-07-29T07:24:14;99767.91;;;18.41;100.00
42411;BME280;28056;51.112;0.984;2023-07-29T07:26:42;99768.64;;;18.28;100.00
42411;BME280;28056;51.112;0.984;2023-07-29T07:29:09;99772.89;;;18.06;100.00
42411;BME280;28056;51.112;0.984;2023-07-29T07:31:37;99771.55;;;18.64;100.00
42411;BME280;28056;51.112;0.984;2023-07-29T07:34:05;99770.12;;;18.07;100.00
42411;BME280;28056;51.112;0.984;2023-07-29T07:36:32;99768.42;;;18.46;100.00
42411;BME280;28056;51.112;0.984;2023-07-29T07:39:00;99763.28;;;18.58;99.78
42411;BME280;28056;51.112;0.984;2023-07-29T07:41:27;99762.05;;;18.99;97.42
42411;BME280;28056;51.112;0.984;2023-07-29T07:43:55;99762.22;;;19.28;95.12
42411;BME280;28056;51.112;0.984;2023-07-29T07:46:23;99762.10;;;19.33;96.09
42411;BME280;28056;51.112;0.984;2023-07-29T07:48:51;99761.24;;;18.89;93.01
42411;BME280;28056;51.112;0.984;2023-07-29T07:51:18;99762.60;;;18.75;94.54
42411;BME280;28056;51.112;0.984;2023-07-29T07:53:46;99763.90;;;19.29;90.83
42411;BME280;28056;51.112;0.984;2023-07-29T07:56:13;99770.02;;;19.01;97.01
42411;BME280;28056;51.112;0.984;2023-07-29T07:58:41;99772.47;;;19.06;91.49
42411;BME280;28056;51.112;0.984;2023-07-29T08:01:09;99774.26;;;18.93;94.09
42411;BME280;28056;51.112;0.984;2023-07-29T08:03:36;99776.63;;;18.96;92.09
42411;BME280;28056;51.112;0.984;2023-07-29T08:06:04;99779.26;;;18.77;94.14
42411;BME280;28056;51.112;0.984;2023-07-29T08:08:32;99772.65;;;19.25;89.59
42411;BME280;28056;51.112;0.984;2023-07-29T08:10:59;99782.17;;;18.77;97.22
42411;BME280;28056;51.112;0.984;2023-07-29T08:13:27;99773.57;;;19.13;91.05
42411;BME280;28056;51.112;0.984;2023-07-29T08:15:54;99770.08;;;19.32;95.79
42411;BME280;28056;51.112;0.984;2023-07-29T08:18:22;99767.30;;;19.56;89.49
42411;BME280;28056;51.112;0.984;2023-07-29T08:20:53;99765.27;;;19.13;88.42
42411;BME280;28056;51.112;0.984;2023-07-29T08:23:21;99760.58;;;19.91;89.61
42411;BME280;28056;51.112;0.984;2023-07-29T08:25:52;99752.81;;;19.34;89.36
42411;BME280;28056;51.112;0.984;2023-07-29T08:28:20;99753.20;;;19.99;86.55
42411;BME280;28056;51.112;0.984;2023-07-29T08:30:47;99753.54;;;19.61;91.47
42411;BME280;28056;51.112;0.984;2023-07-29T08:33:15;99752.32;;;19.74;81.21
42411;BME280;28056;51.112;0.984;2023-07-29T08:35:42;99758.26;;;19.40;81.23
42411;BME280;28056;51.112;0.984;2023-07-29T08:38:10;99755.07;;;19.22;82.76
42411;BME280;28056;51.112;0.984;2023-07-29T08:40:45;99751.43;;;18.89;82.08
42411;BME280;28056;51.112;0.984;2023-07-29T08:43:15;99751.12;;;19.91;86.09
42411;BME280;28056;51.112;0.984;2023-07-29T08:45:44;99750.41;;;20.41;85.75
42411;BME280;28056;51.112;0.984;2023-07-29T08:48:12;99748.25;;;20.57;83.62
42411;BME280;28056;51.112;0.984;2023-07-29T08:50:43;99757.32;;;19.92;77.87
42411;BME280;28056;51.112;0.984;2023-07-29T08:53:11;99753.14;;;19.67;80.40
42411;BME280;28056;51.112;0.984;2023-07-29T08:55:39;99744.86;;;20.69;81.18
42411;BME280;28056;51.112;0.984;2023-07-29T08:58:07;99751.42;;;20.45;78.62
42411;BME280;28056;51.112;0.984;2023-07-29T09:00:35;99746.68;;;20.49;78.11
42411;BME280;28056;51.112;0.984;2023-07-29T09:03:02;99740.48;;;19.99;77.55
42411;BME280;28056;51.112;0.984;2023-07-29T09:05:30;99744.43;;;20.35;75.82
42411;BME280;28056;51.112;0.984;2023-07-29T09:07:57;99748.93;;;19.81;84.74
42411;BME280;28056;51.112;0.984;2023-07-29T09:10:26;99731.92;;;21.01;76.69
42411;BME280;28056;51.112;0.984;2023-07-29T09:12:53;99736.22;;;20.91;69.71
42411;BME280;28056;51.112;0.984;2023-07-29T09:15:28;99734.16;;;21.21;72.77
42411;BME280;28056;51.112;0.984;2023-07-29T09:17:56;99729.28;;;21.71;72.10
42411;BME280;28056;51.112;0.984;2023-07-29T09:20:25;99732.27;;;21.62;73.01
42411;BME280;28056;51.112;0.984;2023-07-29T09:22:54;99731.81;;;20.96;69.03
42411;BME280;28056;51.112;0.984;2023-07-29T09:25:24;99728.63;;;21.28;69.45
42411;BME280;28056;51.112;0.984;2023-07-29T09:27:52;99733.16;;;22.62;67.25
42411;BME280;28056;51.112;0.984;2023-07-29T09:30:19;99726.77;;;21.70;64.69
42411;BME280;28056;51.112;0.984;2023-07-29T09:32:46;99731.95;;;21.97;64.28
42411;BME280;28056;51.112;0.984;2023-07-29T09:35:14;99727.53;;;20.93;66.49
42411;BME280;28056;51.112;0.984;2023-07-29T09:37:43;99731.55;;;21.32;64.31
42411;BME280;28056;51.112;0.984;2023-07-29T09:40:14;99739.38;;;20.68;70.62
42411;BME280;28056;51.112;0.984;2023-07-29T09:42:48;99731.78;;;21.17;67.93
42411;BME280;28056;51.112;0.984;2023-07-29T09:45:20;99728.63;;;21.09;64.59
42411;BME280;28056;51.112;0.984;2023-07-29T09:47:47;99731.86;;;21.54;62.72
42411;BME280;28056;51.112;0.984;2023-07-29T09:50:14;99727.44;;;21.97;66.20
42411;BME280;28056;51.112;0.984;2023-07-29T09:52:42;99722.05;;;21.56;66.14
42411;BME280;28056;51.112;0.984;2023-07-29T09:55:12;99728.63;;;22.06;63.03
42411;BME280;28056;51.112;0.984;2023-07-29T09:57:40;99731.45;;;22.74;63.34
42411;BME280;28056;51.112;0.984;2023-07-29T10:00:09;99730.97;;;24.12;59.08
42411;BME280;28056;51.112;0.984;2023-07-29T10:02:39;99728.81;;;23.74;57.66
42411;BME280;28056;51.112;0.984;2023-07-29T10:05:08;99723.23;;;24.07;55.71
42411;BME280;28056;51.112;0.984;2023-07-29T10:07:37;99728.72;;;22.96;53.17
42411;BME280;28056;51.112;0.984;2023-07-29T10:10:07;99732.22;;;23.02;52.01
42411;BME280;28056;51.112;0.984;2023-07-29T10:12:35;99736.80;;;22.09;55.14
42411;BME280;28056;51.112;0.984;2023-07-29T10:15:04;99736.08;;;21.68;55.75
42411;BME280;28056;51.112;0.984;2023-07-29T10:17:35;99734.42;;;21.23;57.67
42411;BME280;28056;51.112;0.984;2023-07-29T10:20:05;99732.35;;;21.00;55.40
42411;BME280;28056;51.112;0.984;2023-07-29T10:22:37;99732.79;;;21.39;53.71
42411;BME280;28056;51.112;0.984;2023-07-29T10:25:08;99738.26;;;22.44;50.03
42411;BME280;28056;51.112;0.984;2023-07-29T10:27:42;99740.01;;;23.19;58.75
42411;BME280;28056;51.112;0.984;2023-07-29T10:30:11;99738.13;;;23.03;51.42
42411;BME280;28056;51.112;0.984;2023-07-29T10:32:42;99743.64;;;23.57;53.83
42411;BME280;28056;51.112;0.984;2023-07-29T10:35:10;99736.64;;;22.03;52.43
42411;BME280;28056;51.112;0.984;2023-07-29T10:37:39;99762.36;;;23.35;48.01
42411;BME280;28056;51.112;0.984;2023-07-29T10:40:08;99744.91;;;23.32;51.09
42411;BME280;28056;51.112;0.984;2023-07-29T10:42:37;99734.24;;;23.13;46.09
42411;BME280;28056;51.112;0.984;2023-07-29T10:45:21;99751.07;;;22.59;49.12
42411;BME280;28056;51.112;0.984;2023-07-29T10:47:48;99742.60;;;22.85;49.34
42411;BME280;28056;51.112;0.984;2023-07-29T10:50:18;99745.76;;;23.40;47.72
42411;BME280;28056;51.112;0.984;2023-07-29T10:52:50;99742.39;;;23.07;49.73
42411;BME280;28056;51.112;0.984;2023-07-29T10:55:25;99738.45;;;24.01;49.31
42411;BME280;28056;51.112;0.984;2023-07-29T10:58:06;99736.00;;;24.21;46.69
42411;BME280;28056;51.112;0.984;2023-07-29T11:00:34;99746.87;;;23.18;49.05
42411;BME280;28056;51.112;0.984;2023-07-29T11:03:04;99744.43;;;23.29;46.30
42411;BME280;28056;51.112;0.984;2023-07-29T11:05:44;99739.60;;;23.34;47.63
42411;BME280;28056;51.112;0.984;2023-07-29T11:08:21;99737.72;;;23.87;45.74
42411;BME280;28056;51.112;0.984;2023-07-29T11:11:06;99735.43;;;23.89;47.72
42411;BME280;28056;51.112;0.984;2023-07-29T11:13:34;99739.24;;;23.69;45.56
42411;BME280;28056;51.112;0.984;2023-07-29T11:16:03;99739.58;;;23.87;46.13
42411;BME280;28056;51.112;0.984;2023-07-29T11:18:32;99736.13;;;23.24;50.90
42411;BME280;28056;51.112;0.984;2023-07-29T11:21:01;99743.75;;;23.34;56.86
42411;BME280;28056;51.112;0.984;2023-07-29T11:23:30;99738.29;;;24.21;46.24
42411;BME280;28056;51.112;0.984;2023-07-29T11:26:00;99742.54;;;25.08;45.25
42411;BME280;28056;51.112;0.984;2023-07-29T11:28:28;99740.62;;;24.05;45.62
42411;BME280;28056;51.112;0.984;2023-07-29T11:30:57;99747.67;;;24.53;50.53
42411;BME280;28056;51.112;0.984;2023-07-29T11:33:26;99736.36;;;24.45;42.25
42411;BME280;28056;51.112;0.984;2023-07-29T11:35:53;99743.45;;;24.26;55.83
42411;BME280;28056;51.112;0.984;2023-07-29T11:38:22;99744.48;;;24.14;47.90
42411;BME280;28056;51.112;0.984;2023-07-29T11:40:58;99748.53;;;24.30;47.15
42411;BME280;28056;51.112;0.984;2023-07-29T11:43:26;99740.45;;;24.03;51.06
42411;BME280;28056;51.112;0.984;2023-07-29T11:45:54;99744.86;;;24.39;48.67
42411;BME280;28056;51.112;0.984;2023-07-29T11:48:31;99741.71;;;24.56;54.27
42411;BME280;28056;51.112;0.984;2023-07-29T11:50:59;99746.18;;;25.04;47.14
42411;BME280;28056;51.112;0.984;2023-07-29T11:53:29;99758.16;;;23.13;49.59
42411;BME280;28056;51.112;0.984;2023-07-29T11:55:56;99762.54;;;23.45;51.46
42411;BME280;28056;51.112;0.984;2023-07-29T11:58:24;99750.16;;;23.76;45.87
42411;BME280;28056;51.112;0.984;2023-07-29T12:00:52;99752.14;;;23.64;44.30
42411;BME280;28056;51.112;0.984;2023-07-29T12:03:20;99749.64;;;23.92;48.11
42411;BME280;28056;51.112;0.984;2023-07-29T12:05:48;99748.81;;;23.09;48.40
42411;BME280;28056;51.112;0.984;2023-07-29T12:08:15;99744.94;;;24.37;51.16
42411;BME280;28056;51.112;0.984;2023-07-29T12:10:42;99743.66;;;24.69;48.91
42411;BME280;28056;51.112;0.984;2023-07-29T12:13:11;99740.03;;;25.18;44.72
42411;BME280;28056;51.112;0.984;2023-07-29T12:15:38;99740.95;;;25.44;45.48
42411;BME280;28056;51.112;0.984;2023-07-29T12:18:06;99739.30;;;26.14;49.56
42411;BME280;28056;51.112;0.984;2023-07-29T12:20:34;99735.08;;;24.74;42.55
42411;BME280;28056;51.112;0.984;2023-07-29T12:23:01;99736.17;;;24.58;50.68
42411;BME280;28056;51.112;0.984;2023-07-29T12:25:29;99731.63;;;26.05;48.18
42411;BME280;28056;51.112;0.984;2023-07-29T12:27:55;99737.79;;;27.58;48.09
42411;BME280;28056;51.112;0.984;2023-07-29T12:30:23;99731.83;;;26.34;43.09
42411;BME280;28056;51.112;0.984;2023-07-29T12:32:50;99739.02;;;25.99;41.80
42411;BME280;28056;51.112;0.984;2023-07-29T12:35:18;99744.01;;;24.34;44.56
42411;BME280;28056;51.112;0.984;2023-07-29T12:37:45;99745.75;;;25.31;41.55
42411;BME280;28056;51.112;0.984;2023-07-29T12:40:29;99749.15;;;24.82;44.80
42411;BME280;28056;51.112;0.984;2023-07-29T12:42:56;99745.07;;;24.81;44.99
42411;BME280;28056;51.112;0.984;2023-07-29T12:45:23;99748.68;;;24.65;45.13
42411;BME280;28056;51.112;0.984;2023-07-29T12:47:51;99749.71;;;23.95;44.04
42411;BME280;28056;51.112;0.984;2023-07-29T12:50:18;99759.26;;;22.77;49.64
42411;BME280;28056;51.112;0.984;2023-07-29T12:52:45;99763.82;;;23.06;50.32
42411;BME280;28056;51.112;0.984;2023-07-29T12:55:13;99755.85;;;22.92;51.02
42411;BME280;28056;51.112;0.984;2023-07-29T12:57:42;99762.07;;;22.59;56.99
42411;BME280;28056;51.112;0.984;2023-07-29T13:00:10;99771.96;;;23.70;53.65
42411;BME280;28056;51.112;0.984;2023-07-29T13:02:37;99758.65;;;24.34;51.43
42411;BME280;28056;51.112;0.984;2023-07-29T13:05:08;99762.79;;;24.20;46.45
42411;BME280;28056;51.112;0.984;2023-07-29T13:07:36;99776.90;;;23.33;45.54